createdAt,value
2023-05-02T00:01:22.619Z,15.87
2023-05-02T00:03:50.753Z,16.30
2023-05-02T00:06:18.394Z,16.23
2023-05-02T00:08:45.761Z,16.23
2023-05-02T00:11:13.697Z,17.17
2023-05-02T00:13:40.965Z,24.50
2023-05-02T00:16:08.293Z,14.60
2023-05-02T00:18:35.588Z,15.50
2023-05-02T00:21:03.809Z,17.30
2023-05-02T00:23:31.096Z,15.73
2023-05-02T00:25:58.321Z,15.73
2023-05-02T00:28:29.140Z,18.23
2023-05-02T00:30:56.423Z,16.20
2023-05-02T00:33:23.722Z,18.97
2023-05-02T00:35:51.604Z,16.03
2023-05-02T00:38:19.752Z,14.47
2023-05-02T00:40:48.229Z,14.87
2023-05-02T00:43:16.449Z,16.90
2023-05-02T00:45:50.045Z,17.30
2023-05-02T00:48:19.838Z,16.50
2023-05-02T00:50:47.089Z,15.80
2023-05-02T00:53:14.767Z,13.33
2023-05-02T00:55:42.771Z,13.53
2023-05-02T00:58:13.668Z,14.07
2023-05-02T01:00:56.119Z,19.27
2023-05-02T01:03:35.355Z,14.87
2023-05-02T01:06:11.929Z,17.20
2023-05-02T01:08:46.756Z,12.53
2023-05-02T01:11:26.955Z,14.53
2023-05-02T01:13:56.283Z,23.50
2023-05-02T01:16:25.131Z,14.83
2023-05-02T01:18:54.036Z,17.47
2023-05-02T01:21:21.896Z,17.50
2023-05-02T01:24:02.476Z,20.93
2023-05-02T01:26:40.770Z,18.40
2023-05-02T01:29:11.268Z,21.23
2023-05-02T01:31:43.337Z,16.27
2023-05-02T01:34:11.436Z,20.37
2023-05-02T01:36:44.283Z,15.73
2023-05-02T01:39:13.983Z,21.07
2023-05-02T01:41:41.928Z,13.47
2023-05-02T01:44:12.830Z,14.40
2023-05-02T01:46:43.118Z,16.67
2023-05-02T01:49:11.312Z,16.93
2023-05-02T01:51:45.333Z,15.07
2023-05-02T01:54:15.089Z,12.63
2023-05-02T01:56:43.834Z,14.23
2023-05-02T01:59:15.171Z,17.43
2023-05-02T02:01:44.149Z,16.10
2023-05-02T02:04:14.470Z,14.83
2023-05-02T02:06:45.741Z,14.33
2023-05-02T02:09:13.677Z,14.57
2023-05-02T02:11:47.044Z,15.37
2023-05-02T02:14:21.036Z,15.63
2023-05-02T02:16:50.669Z,16.20
2023-05-02T02:19:18.835Z,14.93
2023-05-02T02:21:48.772Z,13.40
2023-05-02T02:24:18.330Z,18.50
2023-05-02T02:26:46.183Z,13.73
2023-05-02T02:29:13.423Z,14.43
2023-05-02T02:31:41.332Z,15.70
2023-05-02T02:34:08.835Z,17.73
2023-05-02T02:36:44.722Z,20.63
2023-05-02T02:39:20.027Z,14.90
2023-05-02T02:41:55.563Z,18.13
2023-05-02T02:44:34.165Z,15.27
2023-05-02T02:47:10.256Z,18.40
2023-05-02T02:49:48.205Z,19.20
2023-05-02T02:52:24.358Z,25.40
2023-05-02T02:54:57.071Z,25.20
2023-05-02T02:57:31.759Z,21.63
2023-05-02T03:00:06.846Z,18.67
2023-05-02T03:02:36.692Z,25.60
2023-05-02T03:05:05.838Z,16.20
2023-05-02T03:07:33.805Z,16.63
2023-05-02T03:10:04.117Z,18.37
2023-05-02T03:12:31.665Z,17.23
2023-05-02T03:15:22.572Z,22.33
2023-05-02T03:17:50.608Z,20.03
2023-05-02T03:20:18.278Z,21.10
2023-05-02T03:22:45.715Z,18.17
2023-05-02T03:25:12.959Z,16.33
2023-05-02T03:27:40.227Z,14.60
2023-05-02T03:30:08.959Z,19.30
2023-05-02T03:32:36.296Z,16.30
2023-05-02T03:35:05.079Z,13.07
2023-05-02T03:37:33.584Z,13.27
2023-05-02T03:40:01.169Z,17.33
2023-05-02T03:42:28.736Z,11.67
2023-05-02T03:44:56.037Z,14.83
2023-05-02T03:47:23.366Z,27.93
2023-05-02T03:49:52.341Z,14.83
2023-05-02T03:52:20.288Z,14.10
2023-05-02T03:54:47.529Z,11.50
2023-05-02T03:57:14.870Z,14.50
2023-05-02T03:59:44.947Z,13.10
2023-05-02T04:02:12.296Z,14.23
2023-05-02T04:04:40.386Z,18.47
2023-05-02T04:07:09.189Z,21.23
2023-05-02T04:09:37.706Z,17.47
2023-05-02T04:12:05.492Z,14.03
2023-05-02T04:14:32.760Z,18.13
2023-05-02T04:17:00.076Z,13.63
2023-05-02T04:19:27.393Z,13.43
2023-05-02T04:21:54.624Z,13.03
2023-05-02T04:24:21.894Z,18.40
2023-05-02T04:26:49.852Z,13.70
2023-05-02T04:29:17.174Z,16.30
2023-05-02T04:31:44.664Z,12.83
2023-05-02T04:34:11.927Z,11.50
2023-05-02T04:36:39.566Z,13.83
2023-05-02T04:39:07.217Z,12.90
2023-05-02T04:41:34.509Z,11.63
2023-05-02T04:44:03.080Z,12.40
2023-05-02T04:46:30.448Z,9.80
2023-05-02T04:48:57.737Z,8.00
2023-05-02T04:51:25.103Z,20.93
2023-05-02T04:53:52.361Z,14.00
2023-05-02T04:56:19.609Z,15.87
2023-05-02T04:58:46.856Z,10.87
2023-05-02T05:01:14.818Z,12.90
2023-05-02T05:03:42.641Z,13.93
2023-05-02T05:06:10.040Z,10.40
2023-05-02T05:08:37.319Z,12.53
2023-05-02T05:11:05.170Z,12.47
2023-05-02T05:13:32.470Z,11.87
2023-05-02T05:15:59.800Z,16.43
2023-05-02T05:18:27.837Z,10.23
2023-05-02T05:20:55.130Z,9.40
2023-05-02T05:23:22.360Z,12.03
2023-05-02T05:25:49.847Z,12.30
2023-05-02T05:28:17.908Z,13.10
2023-05-02T05:30:45.178Z,12.50
2023-05-02T05:33:12.774Z,7.43
2023-05-02T05:35:40.812Z,12.93
2023-05-02T05:38:08.369Z,16.03
2023-05-02T05:40:35.656Z,8.67
2023-05-02T05:43:02.914Z,9.37
2023-05-02T05:45:30.457Z,7.83
2023-05-02T05:47:57.767Z,11.77
2023-05-02T05:50:25.148Z,8.43
2023-05-02T05:52:53.047Z,21.27
2023-05-02T05:55:20.318Z,8.40
2023-05-02T05:57:47.587Z,10.87
2023-05-02T06:00:16.095Z,14.50
2023-05-02T06:02:43.448Z,15.40
2023-05-02T06:05:10.840Z,10.63
2023-05-02T06:07:38.181Z,17.57
2023-05-02T06:10:08.805Z,7.13
2023-05-02T06:12:36.088Z,23.63
2023-05-02T06:15:03.886Z,7.93
2023-05-02T06:17:31.123Z,10.30
2023-05-02T06:19:58.621Z,8.30
2023-05-02T06:22:26.122Z,9.60
2023-05-02T06:24:53.412Z,10.33
2023-05-02T06:27:21.397Z,8.17
2023-05-02T06:29:51.726Z,12.20
2023-05-02T06:32:19.212Z,8.43
2023-05-02T06:34:46.458Z,10.10
2023-05-02T06:37:13.813Z,11.03
2023-05-02T06:39:41.136Z,10.97
2023-05-02T06:42:08.391Z,12.23
2023-05-02T06:44:36.352Z,10.53
2023-05-02T06:47:05.242Z,9.43
2023-05-02T06:49:32.581Z,10.00
2023-05-02T06:52:00.054Z,11.47
2023-05-02T06:54:27.317Z,9.73
2023-05-02T06:56:54.837Z,12.73
2023-05-02T06:59:22.151Z,7.83
2023-05-02T07:01:50.369Z,13.33
2023-05-02T07:04:17.615Z,13.73
2023-05-02T07:06:45.700Z,10.93
2023-05-02T07:09:12.965Z,10.83
2023-05-02T07:11:40.269Z,26.10
2023-05-02T07:14:07.830Z,10.90
2023-05-02T07:16:35.207Z,5.80
2023-05-02T07:19:03.900Z,10.60
2023-05-02T07:21:31.691Z,6.73
2023-05-02T07:23:59.094Z,6.50
2023-05-02T07:26:26.902Z,7.97
2023-05-02T07:28:54.160Z,7.07
2023-05-02T07:31:21.412Z,10.33
2023-05-02T07:33:48.756Z,8.60
2023-05-02T07:36:17.429Z,8.57
2023-05-02T07:38:44.714Z,8.67
2023-05-02T07:41:14.540Z,6.03
2023-05-02T07:43:41.801Z,8.57
2023-05-02T07:46:09.139Z,9.17
2023-05-02T07:48:36.518Z,8.80
2023-05-02T07:51:07.297Z,8.30
2023-05-02T07:53:35.380Z,11.23
2023-05-02T07:56:04.282Z,7.17
2023-05-02T07:58:31.547Z,7.40
2023-05-02T08:00:58.836Z,6.03
2023-05-02T08:03:27.232Z,7.37
2023-05-02T08:05:54.804Z,6.00
2023-05-02T08:08:22.987Z,6.37
2023-05-02T08:10:50.892Z,10.87
2023-05-02T08:13:18.177Z,8.20
2023-05-02T08:15:45.737Z,7.00
2023-05-02T08:18:13.045Z,8.30
2023-05-02T08:20:40.559Z,5.57
2023-05-02T08:23:08.051Z,8.53
2023-05-02T08:25:35.324Z,7.13
2023-05-02T08:28:03.540Z,9.13
2023-05-02T08:30:30.844Z,8.40
2023-05-02T08:32:58.085Z,8.33
2023-05-02T08:35:25.417Z,9.80
2023-05-02T08:37:52.646Z,7.20
2023-05-02T08:40:30.386Z,8.00
2023-05-02T08:43:10.257Z,6.17
2023-05-02T08:45:40.940Z,8.33
2023-05-02T08:48:10.858Z,10.43
2023-05-02T08:50:38.751Z,8.70
2023-05-02T08:53:06.576Z,9.27
2023-05-02T08:55:36.102Z,11.00
2023-05-02T08:58:04.280Z,10.70
2023-05-02T09:00:38.173Z,7.60
2023-05-02T09:03:12.184Z,14.60
2023-05-02T09:05:41.885Z,11.67
2023-05-02T09:08:09.354Z,11.87
2023-05-02T09:10:37.229Z,11.43
2023-05-02T09:13:33.365Z,9.70
2023-05-02T09:16:02.710Z,9.20
2023-05-02T09:18:32.145Z,14.03
2023-05-02T09:21:00.420Z,15.37
2023-05-02T09:23:41.217Z,14.53
2023-05-02T09:26:16.767Z,22.90
2023-05-02T09:28:45.564Z,12.47
2023-05-02T09:31:18.651Z,14.43
2023-05-02T09:33:46.771Z,16.40
2023-05-02T09:36:15.608Z,17.97
2023-05-02T09:38:43.646Z,21.87
2023-05-02T09:41:11.270Z,16.10
2023-05-02T09:43:39.191Z,15.80
2023-05-02T09:46:07.706Z,19.20
2023-05-02T09:48:52.811Z,13.67
2023-05-02T09:51:21.475Z,15.37
2023-05-02T09:53:50.176Z,13.47
2023-05-02T09:56:18.584Z,17.60
2023-05-02T09:58:48.560Z,18.17
2023-05-02T10:01:16.626Z,25.70
2023-05-02T10:03:48.194Z,13.63
2023-05-02T10:06:16.538Z,12.50
2023-05-02T10:08:46.482Z,16.40
2023-05-02T10:11:14.181Z,15.57
2023-05-02T10:13:43.140Z,14.23
2023-05-02T10:16:14.821Z,24.90
2023-05-02T10:18:47.952Z,17.97
2023-05-02T10:21:18.660Z,21.37
2023-05-02T10:23:46.329Z,16.50
2023-05-02T10:26:17.716Z,22.27
2023-05-02T10:28:45.530Z,19.60
2023-05-02T10:31:14.736Z,18.70
2023-05-02T10:33:42.083Z,20.30
2023-05-02T10:36:12.354Z,22.03
2023-05-02T10:38:40.082Z,18.97
2023-05-02T10:41:12.349Z,19.93
2023-05-02T10:43:39.933Z,17.93
2023-05-02T10:46:32.169Z,18.10
2023-05-02T10:49:04.411Z,16.17
2023-05-02T10:51:33.507Z,25.70
2023-05-02T10:54:20.582Z,19.70
2023-05-02T10:57:08.758Z,16.80
2023-05-02T10:59:37.895Z,13.90
2023-05-02T11:02:07.394Z,13.90
2023-05-02T11:05:07.717Z,13.17
2023-05-02T11:07:37.585Z,17.47
2023-05-02T11:10:27.508Z,15.63
2023-05-02T11:12:56.097Z,17.60
2023-05-02T11:15:55.584Z,14.97
2023-05-02T11:18:22.864Z,16.00
2023-05-02T11:20:50.482Z,16.60
2023-05-02T11:23:25.319Z,17.23
2023-05-02T11:25:56.632Z,19.80
2023-05-02T11:28:47.190Z,18.33
2023-05-02T11:32:03.503Z,14.93
2023-05-02T11:34:42.117Z,14.60
2023-05-02T11:37:13.851Z,11.50
2023-05-02T11:39:41.942Z,19.53
2023-05-02T11:42:09.245Z,20.70
2023-05-02T11:44:57.580Z,12.63
2023-05-02T11:47:26.214Z,10.60
2023-05-02T11:49:54.400Z,18.17
2023-05-02T11:52:22.489Z,12.60
2023-05-02T11:54:53.473Z,11.50
2023-05-02T11:57:21.343Z,11.03
2023-05-02T11:59:52.562Z,12.83
2023-05-02T12:02:21.589Z,20.20
2023-05-02T12:04:49.020Z,18.97
2023-05-02T12:07:16.327Z,16.13
2023-05-02T12:09:54.173Z,14.43
2023-05-02T12:12:21.627Z,18.80
2023-05-02T12:14:49.126Z,21.70
2023-05-02T12:17:16.793Z,14.27
2023-05-02T12:19:44.508Z,16.93
2023-05-02T12:22:12.734Z,15.57
2023-05-02T12:24:40.694Z,16.40
2023-05-02T12:27:13.334Z,19.83
2023-05-02T12:29:41.584Z,17.10
2023-05-02T12:32:08.812Z,18.90
2023-05-02T12:34:36.854Z,17.07
2023-05-02T12:37:05.118Z,21.20
2023-05-02T12:39:35.968Z,20.13
2023-05-02T12:42:10.522Z,15.43
2023-05-02T12:44:40.018Z,21.87
2023-05-02T12:47:08.197Z,16.80
2023-05-02T12:49:49.593Z,21.10
2023-05-02T12:52:16.954Z,21.53
2023-05-02T12:54:44.650Z,19.70
2023-05-02T12:57:23.703Z,25.07
2023-05-02T12:59:53.815Z,22.47
2023-05-02T13:02:22.074Z,23.03
2023-05-02T13:04:49.414Z,28.80
2023-05-02T13:07:16.722Z,22.20
2023-05-02T13:09:44.176Z,21.20
2023-05-02T13:12:11.929Z,21.93
2023-05-02T13:14:39.401Z,20.57
2023-05-02T13:17:08.346Z,19.50
2023-05-02T13:19:35.952Z,19.10
2023-05-02T13:22:04.580Z,27.57
2023-05-02T13:24:31.849Z,18.63
2023-05-02T13:26:59.099Z,20.53
2023-05-02T13:29:26.350Z,18.53
2023-05-02T13:31:53.530Z,20.50
2023-05-02T13:34:21.420Z,16.10
2023-05-02T13:36:48.620Z,21.40
2023-05-02T13:39:16.088Z,14.77
2023-05-02T13:41:43.489Z,20.07
2023-05-02T13:44:10.810Z,18.80
2023-05-02T13:46:38.240Z,18.53
2023-05-02T13:49:05.719Z,15.93
2023-05-02T13:51:34.004Z,16.73
2023-05-02T13:54:01.678Z,21.43
2023-05-02T13:56:29.216Z,16.90
2023-05-02T13:58:56.548Z,18.50
2023-05-02T14:01:25.886Z,16.77
2023-05-02T14:03:53.486Z,16.33
2023-05-02T14:06:20.936Z,17.03
2023-05-02T14:08:50.496Z,13.73
2023-05-02T14:11:17.934Z,12.73
2023-05-02T14:13:45.181Z,12.63
2023-05-02T14:16:12.487Z,14.07
2023-05-02T14:18:39.779Z,11.93
2023-05-02T14:21:07.126Z,6.87
2023-05-02T14:23:34.826Z,9.30
2023-05-02T14:26:03.274Z,13.60
2023-05-02T14:28:30.572Z,8.53
2023-05-02T14:30:57.798Z,9.27
2023-05-02T14:33:25.389Z,10.70
2023-05-02T14:35:52.643Z,10.90
2023-05-02T14:38:19.989Z,7.40
2023-05-02T14:40:47.298Z,9.07
2023-05-02T14:43:15.361Z,9.43
2023-05-02T14:45:42.699Z,6.40
2023-05-02T14:48:13.599Z,10.57
2023-05-02T14:50:41.021Z,5.87
2023-05-02T14:53:08.280Z,9.10
2023-05-02T14:55:38.068Z,4.03
2023-05-02T14:58:06.758Z,7.07
2023-05-02T15:00:37.458Z,3.97
2023-05-02T15:03:07.388Z,8.13
2023-05-02T15:05:35.940Z,5.10
2023-05-02T15:08:03.270Z,4.23
2023-05-02T15:10:30.545Z,9.50
2023-05-02T15:12:57.852Z,3.60
2023-05-02T15:15:25.314Z,11.23
2023-05-02T15:17:53.324Z,16.63
2023-05-02T15:20:20.848Z,7.23
2023-05-02T15:22:48.738Z,12.63
2023-05-02T15:25:16.073Z,12.73
2023-05-02T15:27:43.546Z,8.33
2023-05-02T15:30:11.578Z,9.37
2023-05-02T15:32:38.863Z,7.07
2023-05-02T15:35:08.119Z,11.03
2023-05-02T15:37:35.763Z,8.40
2023-05-02T15:40:03.569Z,6.67
2023-05-02T15:42:31.302Z,14.30
2023-05-02T15:44:58.530Z,7.70
2023-05-02T15:47:25.850Z,6.43
2023-05-02T15:49:54.314Z,11.70
2023-05-02T15:52:22.441Z,10.30
2023-05-02T15:54:50.951Z,7.10
2023-05-02T15:57:18.445Z,7.37
2023-05-02T15:59:45.684Z,8.87
2023-05-02T16:02:13.090Z,11.20
2023-05-02T16:04:42.296Z,9.70
2023-05-02T16:07:10.453Z,15.00
2023-05-02T16:09:39.062Z,11.90
2023-05-02T16:12:06.984Z,8.10
2023-05-02T16:14:34.451Z,7.03
2023-05-02T16:17:01.679Z,4.40
2023-05-02T16:19:29.129Z,9.40
2023-05-02T16:21:56.350Z,6.63
2023-05-02T16:24:23.667Z,6.97
2023-05-02T16:26:51.548Z,7.00
2023-05-02T16:29:18.769Z,6.63
2023-05-02T16:31:46.079Z,7.13
2023-05-02T16:34:13.391Z,12.53
2023-05-02T16:36:40.870Z,8.07
2023-05-02T16:39:09.010Z,3.77
2023-05-02T16:41:36.287Z,8.40
2023-05-02T16:44:04.559Z,10.53
2023-05-02T16:46:32.208Z,7.37
2023-05-02T16:48:59.533Z,4.30
2023-05-02T16:51:27.197Z,9.20
2023-05-02T16:53:54.563Z,5.80
2023-05-02T16:56:21.996Z,6.73
2023-05-02T16:58:49.392Z,4.73
2023-05-02T17:01:17.729Z,4.50
2023-05-02T17:03:45.048Z,15.57
2023-05-02T17:06:12.457Z,9.33
2023-05-02T17:08:40.006Z,9.83
2023-05-02T17:11:07.337Z,9.97
2023-05-02T17:13:34.823Z,9.30
2023-05-02T17:16:02.778Z,7.87
2023-05-02T17:18:30.708Z,6.90
2023-05-02T17:20:58.090Z,6.53
2023-05-02T17:23:27.536Z,7.00
2023-05-02T17:25:54.857Z,2.97
2023-05-02T17:28:22.114Z,7.27
2023-05-02T17:30:53.718Z,5.23
2023-05-02T17:33:21.193Z,6.37
2023-05-02T17:35:55.657Z,3.50
2023-05-02T17:38:22.921Z,6.40
2023-05-02T17:40:50.212Z,5.50
2023-05-02T17:43:17.463Z,15.20
2023-05-02T17:45:44.807Z,12.77
2023-05-02T17:48:12.331Z,10.87
2023-05-02T17:50:40.110Z,6.17
2023-05-02T17:53:08.513Z,15.00
2023-05-02T17:55:37.326Z,7.00
2023-05-02T17:58:04.665Z,9.17
2023-05-02T18:00:31.954Z,9.93
2023-05-02T18:02:59.303Z,14.80
2023-05-02T18:05:27.396Z,10.50
2023-05-02T18:07:55.294Z,4.23
2023-05-02T18:10:23.305Z,10.53
2023-05-02T18:12:50.678Z,7.53
2023-05-02T18:15:18.134Z,10.53
2023-05-02T18:17:45.509Z,10.80
2023-05-02T18:20:13.659Z,9.73
2023-05-02T18:22:41.426Z,14.50
2023-05-02T18:25:09.032Z,5.73
2023-05-02T18:27:36.991Z,7.43
2023-05-02T18:30:05.397Z,5.60
2023-05-02T18:32:34.019Z,12.83
2023-05-02T18:35:01.656Z,11.03
2023-05-02T18:37:30.772Z,7.17
2023-05-02T18:39:58.112Z,5.70
2023-05-02T18:42:25.426Z,3.80
2023-05-02T18:44:53.364Z,6.00
2023-05-02T18:47:21.126Z,7.77
2023-05-02T18:49:49.715Z,9.30
2023-05-02T18:52:17.072Z,6.63
2023-05-02T18:54:44.341Z,7.07
2023-05-02T18:57:11.962Z,12.53
2023-05-02T18:59:39.246Z,6.40
2023-05-02T19:02:07.481Z,8.80
2023-05-02T19:04:35.040Z,4.47
2023-05-02T19:07:02.284Z,5.30
2023-05-02T19:09:29.661Z,4.60
2023-05-02T19:11:58.338Z,9.07
2023-05-02T19:14:26.628Z,7.40
2023-05-02T19:16:54.059Z,13.23
2023-05-02T19:19:22.723Z,6.83
2023-05-02T19:21:50.509Z,9.10
2023-05-02T19:24:19.347Z,15.30
2023-05-02T19:26:49.499Z,8.23
2023-05-02T19:29:17.224Z,14.30
2023-05-02T19:31:45.595Z,11.07
2023-05-02T19:34:12.928Z,7.93
2023-05-02T19:36:41.237Z,14.43
2023-05-02T19:39:12.426Z,15.10
2023-05-02T19:41:41.720Z,6.17
2023-05-02T19:44:08.960Z,6.40
2023-05-02T19:46:36.337Z,19.43
2023-05-02T19:49:03.598Z,7.57
2023-05-02T19:51:33.433Z,8.63
2023-05-02T19:54:01.842Z,8.07
2023-05-02T19:56:29.974Z,36.80
2023-05-02T19:58:57.988Z,31.40
2023-05-02T20:01:27.582Z,26.57
2023-05-02T20:03:54.984Z,12.23
2023-05-02T20:06:22.407Z,7.90
2023-05-02T20:08:50.349Z,7.30
2023-05-02T20:11:18.301Z,19.23
2023-05-02T20:13:45.520Z,25.07
2023-05-02T20:16:13.652Z,19.50
2023-05-02T20:18:40.963Z,15.50
2023-05-02T20:21:08.283Z,5.67
2023-05-02T20:23:35.489Z,12.63
2023-05-02T20:26:03.318Z,10.47
2023-05-02T20:28:31.296Z,10.63
2023-05-02T20:30:58.576Z,10.70
2023-05-02T20:33:37.035Z,14.17
2023-05-02T20:36:12.725Z,11.30
2023-05-02T20:38:41.682Z,13.07
2023-05-02T20:41:11.924Z,10.60
2023-05-02T20:43:43.948Z,7.43
2023-05-02T20:46:12.012Z,12.37
2023-05-02T20:48:40.077Z,10.33
2023-05-02T20:51:07.901Z,11.87
2023-05-02T20:53:36.218Z,7.37
2023-05-02T20:56:03.941Z,6.93
2023-05-02T20:58:31.692Z,11.20
2023-05-02T21:00:59.709Z,17.00
2023-05-02T21:03:27.963Z,10.40
2023-05-02T21:06:01.117Z,8.50
2023-05-02T21:08:31.548Z,8.10
2023-05-02T21:10:59.008Z,15.23
2023-05-02T21:13:27.299Z,12.63
2023-05-02T21:15:54.647Z,10.17
2023-05-02T21:18:22.867Z,12.50
2023-05-02T21:20:50.440Z,17.13
2023-05-02T21:23:17.944Z,17.20
2023-05-02T21:25:45.538Z,14.80
2023-05-02T21:28:12.943Z,8.87
2023-05-02T21:30:40.224Z,10.43
2023-05-02T21:33:07.575Z,7.80
2023-05-02T21:35:35.578Z,10.87
2023-05-02T21:38:03.367Z,11.03
2023-05-02T21:40:31.208Z,10.93
2023-05-02T21:42:58.721Z,8.50
2023-05-02T21:45:26.385Z,8.47
2023-05-02T21:47:54.058Z,17.23
2023-05-02T21:50:21.480Z,7.90
2023-05-02T21:52:49.655Z,7.80
2023-05-02T21:55:17.097Z,7.80
2023-05-02T21:57:44.609Z,15.20
2023-05-02T22:00:13.089Z,6.73
2023-05-02T22:02:43.676Z,9.00
2023-05-02T22:05:13.179Z,13.80
2023-05-02T22:07:41.167Z,12.70
2023-05-02T22:10:11.459Z,8.03
2023-05-02T22:12:40.490Z,6.70
2023-05-02T22:15:09.795Z,9.70
2023-05-02T22:17:37.265Z,13.23
2023-05-02T22:20:09.461Z,11.50
2023-05-02T22:22:36.897Z,15.53
2023-05-02T22:25:04.876Z,16.10
2023-05-02T22:27:33.128Z,7.10
2023-05-02T22:30:00.890Z,12.77
2023-05-02T22:32:28.665Z,7.77
2023-05-02T22:34:56.172Z,11.57
2023-05-02T22:37:23.664Z,10.10
2023-05-02T22:39:51.241Z,19.00
2023-05-02T22:42:19.255Z,14.67
2023-05-02T22:44:54.532Z,8.77
2023-05-02T22:47:22.253Z,7.43
2023-05-02T22:49:50.387Z,12.07
2023-05-02T22:52:19.781Z,12.43
2023-05-02T22:54:47.239Z,14.77
2023-05-02T22:57:14.765Z,18.23
2023-05-02T22:59:42.202Z,11.50
2023-05-02T23:02:11.552Z,10.37
2023-05-02T23:04:39.022Z,10.43
2023-05-02T23:07:06.492Z,6.73
2023-05-02T23:09:33.980Z,8.77
2023-05-02T23:12:05.045Z,8.97
2023-05-02T23:14:32.541Z,12.00
2023-05-02T23:17:02.334Z,12.43
2023-05-02T23:19:31.063Z,9.63
2023-05-02T23:21:58.823Z,9.50
2023-05-02T23:24:26.276Z,6.70
2023-05-02T23:26:53.830Z,10.00
2023-05-02T23:29:21.466Z,11.20
2023-05-02T23:31:50.134Z,11.07
2023-05-02T23:34:17.667Z,12.87
2023-05-02T23:36:46.366Z,9.97
2023-05-02T23:39:14.167Z,13.07
2023-05-02T23:41:41.710Z,10.77
2023-05-02T23:44:09.139Z,11.17
2023-05-02T23:46:36.624Z,13.17
2023-05-02T23:49:04.193Z,13.10
2023-05-02T23:51:31.745Z,11.60
2023-05-02T23:54:00.791Z,10.27
2023-05-02T23:56:28.248Z,13.13
2023-05-02T23:58:55.921Z,15.67
